Time;durP1;ratioP1;P1;durP2;ratioP2;P2;SDS_P1;SDS_P2;PMS_P1;PMS_P2;Temp;Humidity;BMP_temperature;BMP_pressure;BME280_temperature;BME280_humidity;BME280_pressure;Samples;Min_cycle;Max_cycle;Signal;HPM_P1;HPM_P2
2021/05/21 00:04:20;;;;;;;3.03;2.73;;;;;;;11.83;62.59;100553.97;5151393;56;1139243;-75
2021/05/21 00:09:26;;;;;;;6.70;3.00;;;;;;;11.81;62.90;100546.14;5151113;56;1139252;-76
2021/05/21 00:14:31;;;;;;;6.65;3.85;;;;;;;11.74;62.66;100542.30;5151047;56;1139097;-74
2021/05/21 00:19:37;;;;;;;4.25;2.98;;;;;;;11.57;62.70;100529.59;5151420;56;1138889;-75
2021/05/21 00:24:43;;;;;;;7.07;3.23;;;;;;;11.42;62.87;100533.00;5151357;56;1139005;-76
2021/05/21 00:29:49;;;;;;;3.17;2.87;;;;;;;11.29;63.23;100527.02;5150994;56;1138667;-74
2021/05/21 00:34:55;;;;;;;4.33;3.23;;;;;;;11.21;63.64;100529.41;5150902;56;1138598;-75
2021/05/21 00:40:00;;;;;;;6.77;3.50;;;;;;;11.04;63.64;100528.11;5151042;56;1138508;-74
2021/05/21 00:45:08;;;;;;;3.03;2.83;;;;;;;10.99;64.08;100532.10;5150855;56;1138920;-75
2021/05/21 00:50:13;;;;;;;4.57;3.00;;;;;;;10.97;64.33;100528.25;5150824;56;1138684;-77
2021/05/21 00:55:21;;;;;;;5.07;3.40;;;;;;;10.96;64.39;100523.92;5151127;56;1138965;-77
2021/05/21 01:00:27;;;;;;;5.87;3.40;;;;;;;10.92;64.75;100521.98;5151017;56;1139642;-75
2021/05/21 01:05:33;;;;;;;4.72;3.22;;;;;;;10.90;64.89;100520.42;5151127;56;1139079;-74
2021/05/21 01:10:39;;;;;;;6.60;3.80;;;;;;;10.81;64.95;100517.19;5151126;56;1139038;-73
2021/05/21 01:15:45;;;;;;;6.80;3.43;;;;;;;10.81;65.37;100506.13;5150955;56;1139016;-78
2021/05/21 01:20:51;;;;;;;4.33;3.27;;;;;;;10.82;65.33;100510.94;5162116;56;1138523;-75
2021/05/21 01:25:58;;;;;;;5.17;3.33;;;;;;;10.75;65.33;100505.27;5168581;56;1138394;-73
2021/05/21 01:31:03;;;;;;;3.30;3.00;;;;;;;10.72;65.43;100496.73;5158700;56;1138584;-78
2021/05/21 01:36:09;;;;;;;6.97;3.80;;;;;;;10.74;65.58;100494.33;5169007;56;1138873;-73
2021/05/21 01:41:15;;;;;;;7.33;3.60;;;;;;;10.66;65.67;100488.81;5168850;56;1138318;-74
2021/05/21 01:46:23;;;;;;;5.63;3.20;;;;;;;10.62;65.75;100490.48;5168898;56;1138544;-74
2021/05/21 01:51:30;;;;;;;5.47;2.97;;;;;;;10.57;65.91;100482.42;5169193;56;1138414;-76
2021/05/21 01:56:36;;;;;;;6.97;3.55;;;;;;;10.50;66.11;100483.88;5169084;56;1138531;-75
2021/05/21 02:01:43;;;;;;;5.97;3.17;;;;;;;10.38;66.27;100477.39;5169000;56;1138748;-73
2021/05/21 02:06:48;;;;;;;5.07;2.97;;;;;;;10.30;66.51;100467.87;5168961;56;1138913;-73
2021/05/21 02:11:54;;;;;;;6.60;3.57;;;;;;;10.27;66.59;100465.45;5168872;56;1138536;-76
2021/05/21 02:17:01;;;;;;;5.23;3.77;;;;;;;10.20;66.56;100451.41;5168537;56;1138636;-74
2021/05/21 02:22:09;;;;;;;5.03;3.70;;;;;;;10.11;66.86;100444.61;5168761;56;1138798;-75
2021/05/21 02:27:15;;;;;;;6.03;3.90;;;;;;;9.99;67.16;100439.80;5168929;56;1138907;-77
2021/05/21 02:32:21;;;;;;;5.07;3.70;;;;;;;9.95;67.31;100435.70;5168969;56;1136460;-77
2021/05/21 02:37:27;;;;;;;5.27;3.47;;;;;;;9.95;67.24;100433.53;5169270;56;1137107;-75
2021/05/21 02:42:33;;;;;;;7.85;4.50;;;;;;;9.94;67.54;100418.64;5169220;56;1137066;-73
2021/05/21 02:47:38;;;;;;;5.53;4.05;;;;;;;9.90;67.66;100421.17;5169062;56;1136860;-76
2021/05/21 02:52:44;;;;;;;4.92;3.60;;;;;;;9.81;67.92;100415.63;5168927;56;1137409;-78
2021/05/21 02:57:50;;;;;;;7.10;3.50;;;;;;;9.73;68.31;100406.61;5168730;56;1137356;-74
2021/05/21 03:02:57;;;;;;;9.83;4.90;;;;;;;9.69;68.44;100402.51;5168792;56;1137066;-76
2021/05/21 03:08:02;;;;;;;6.43;3.83;;;;;;;9.61;68.70;100392.54;5168871;56;1136876;-76
2021/05/21 03:13:08;;;;;;;6.43;4.03;;;;;;;9.57;69.17;100389.77;5168857;56;1136892;-75
2021/05/21 03:18:22;;;;;;;6.27;4.23;;;;;;;9.50;69.21;100386.73;5169030;56;1136911;-77
2021/05/21 03:23:24;;;;;;;9.93;3.63;;;;;;;9.48;69.75;100383.36;5160837;56;1136882;-76
2021/05/21 03:28:29;;;;;;;5.30;3.80;;;;;;;9.52;69.83;100381.34;5151038;56;1136837;-75
2021/05/21 03:33:36;;;;;;;5.42;4.10;;;;;;;9.57;70.03;100378.36;5151702;56;1136863;-76
2021/05/21 03:38:41;;;;;;;5.58;4.10;;;;;;;9.60;70.05;100377.66;5151642;56;1137069;-75
2021/05/21 03:43:47;;;;;;;9.37;5.07;;;;;;;9.57;70.29;100381.00;5151779;56;1137099;-75
2021/05/21 03:48:52;;;;;;;9.20;4.70;;;;;;;9.61;70.74;100377.17;5151319;56;1137227;-77
2021/05/21 03:53:58;;;;;;;9.47;3.80;;;;;;;9.62;71.15;100370.46;5151495;56;1137126;-74
2021/05/21 03:59:05;;;;;;;8.87;4.13;;;;;;;9.70;71.05;100369.86;5151543;56;1136829;-77
2021/05/21 04:04:11;;;;;;;7.90;4.50;;;;;;;9.77;71.00;100373.73;5151323;56;1136932;-76
2021/05/21 04:09:17;;;;;;;4.60;3.97;;;;;;;9.79;71.26;100371.79;5151280;56;1137012;-74
2021/05/21 04:14:23;;;;;;;10.70;5.30;;;;;;;9.82;71.59;100371.56;5151517;56;1136788;-75
2021/05/21 04:19:29;;;;;;;5.75;4.67;;;;;;;9.87;71.27;100365.45;5151769;56;1144074;-71
2021/05/21 04:24:34;;;;;;;5.80;4.77;;;;;;;9.90;71.37;100349.85;5141943;56;1136858;-76
2021/05/21 04:29:40;;;;;;;8.50;4.55;;;;;;;9.97;71.42;100345.76;5151449;56;1136738;-74
2021/05/21 04:34:46;;;;;;;9.85;4.55;;;;;;;10.02;71.32;100356.34;5151347;56;1136868;-73
2021/05/21 04:39:52;;;;;;;7.03;4.93;;;;;;;10.06;71.51;100343.26;5150722;56;1138909;-72
2021/05/21 04:44:57;;;;;;;9.47;5.57;;;;;;;10.08;71.37;100329.42;5150511;56;1139494;-76
2021/05/21 04:50:04;;;;;;;9.37;5.43;;;;;;;10.13;71.29;100331.71;5151186;56;1139151;-76
2021/05/21 04:55:12;;;;;;;8.23;5.20;;;;;;;10.17;71.35;100331.36;5151122;56;1138939;-75
2021/05/21 05:00:19;;;;;;;10.13;5.10;;;;;;;10.23;71.48;100333.53;5092075;56;1138935;-77
2021/05/21 05:05:25;;;;;;;10.47;5.37;;;;;;;10.26;71.64;100321.87;5093532;56;1141046;-77
2021/05/21 05:10:32;;;;;;;7.80;4.90;;;;;;;10.35;71.60;100319.84;5086465;57;1141132;-78
2021/05/21 05:15:38;;;;;;;9.88;5.83;;;;;;;10.42;71.90;100315.73;5086403;56;1139177;-74
2021/05/21 05:20:45;;;;;;;10.82;4.92;;;;;;;10.53;71.73;100299.87;5094279;57;1138988;-76
2021/05/21 05:25:51;;;;;;;7.17;4.97;;;;;;;10.72;71.57;100299.19;5091704;56;1140729;-74
2021/05/21 05:30:57;;;;;;;8.53;4.63;;;;;;;10.87;71.53;100303.70;5098224;56;1139126;-76
2021/05/21 05:36:03;;;;;;;13.17;5.17;;;;;;;10.98;71.07;100298.39;5109341;56;1138774;-70
2021/05/21 05:41:09;;;;;;;13.20;5.27;;;;;;;11.05;70.90;100296.89;5131356;56;1140663;-73
2021/05/21 05:46:15;;;;;;;6.40;3.93;;;;;;;11.21;71.03;100284.55;5102803;56;1140679;-72
2021/05/21 05:51:21;;;;;;;7.17;4.08;;;;;;;11.35;70.69;100282.90;5082945;56;1138497;-72
2021/05/21 05:56:27;;;;;;;5.67;3.92;;;;;;;11.45;70.43;100271.06;5082795;56;1138535;-77
2021/05/21 06:01:33;;;;;;;6.97;3.70;;;;;;;11.54;70.02;100273.75;5083142;56;1138938;-73
2021/05/21 06:06:38;;;;;;;8.10;4.20;;;;;;;11.63;70.09;100268.14;5083156;56;1138771;-72
2021/05/21 06:11:44;;;;;;;7.15;3.67;;;;;;;11.72;69.83;100258.09;5099619;56;1138819;-74
2021/05/21 06:16:50;;;;;;;9.13;4.50;;;;;;;11.87;69.36;100254.14;5083645;56;1138802;-72
2021/05/21 06:21:55;;;;;;;8.07;4.90;;;;;;;12.01;68.96;100242.81;5111132;56;1138602;-74
2021/05/21 06:32:25;;;;;;;10.20;3.75;;;;;;;12.33;68.65;100234.17;5120876;56;1140984;-74
2021/05/21 06:37:31;;;;;;;3.93;3.30;;;;;;;12.56;68.65;100217.50;5105926;56;1140494;-77
2021/05/21 06:42:37;;;;;;;9.50;4.13;;;;;;;12.82;68.33;100217.31;5122658;56;1138559;-74
2021/05/21 06:47:44;;;;;;;10.05;3.83;;;;;;;13.06;67.36;100197.44;5113670;56;1138544;-73
2021/05/21 06:52:49;;;;;;;3.23;2.93;;;;;;;13.28;67.07;100191.34;5121220;56;1140481;-72
2021/05/21 06:57:55;;;;;;;3.33;2.70;;;;;;;13.52;65.87;100187.34;5105230;56;1138622;-73
2021/05/21 07:03:01;;;;;;;4.50;2.50;;;;;;;13.79;65.98;100179.37;5097878;56;1138861;-72
2021/05/21 07:08:06;;;;;;;7.67;3.37;;;;;;;14.12;62.48;100181.08;5097050;56;1138747;-74
2021/05/21 07:13:16;;;;;;;6.70;2.23;;;;;;;14.25;63.22;100174.41;5105761;56;1138649;-71
2021/05/21 07:18:26;;;;;;;3.03;2.70;;;;;;;14.33;62.17;100167.85;5106271;56;1138772;-71
2021/05/21 07:23:32;;;;;;;6.77;3.03;;;;;;;14.38;61.86;100164.22;5098481;56;1138715;-76
2021/05/21 07:28:37;;;;;;;5.78;2.62;;;;;;;14.51;62.99;100152.41;5102385;56;1138599;-72
2021/05/21 07:33:44;;;;;;;3.60;2.57;;;;;;;14.70;60.92;100157.05;5084573;56;1138649;-73
2021/05/21 07:38:50;;;;;;;13.83;2.80;;;;;;;14.84;61.13;100142.84;5084802;56;1138564;-75
2021/05/21 07:43:57;;;;;;;4.60;3.27;;;;;;;15.08;61.24;100143.02;5083366;56;1140898;-75
2021/05/21 07:49:03;;;;;;;8.05;3.12;;;;;;;15.37;60.29;100129.36;5103931;56;1138589;-74
2021/05/21 07:54:09;;;;;;;8.80;2.67;;;;;;;15.56;57.88;100137.64;5111053;56;1139005;-75
2021/05/21 07:59:15;;;;;;;5.70;3.00;;;;;;;15.59;57.57;100135.97;5083470;57;1139238;-73
2021/05/21 08:04:21;;;;;;;2.60;1.90;;;;;;;15.76;58.81;100124.37;5105439;56;1138958;-74
2021/05/21 08:09:27;;;;;;;3.27;2.97;;;;;;;15.95;56.74;100121.43;5083263;56;1139225;-71
2021/05/21 08:14:33;;;;;;;2.17;2.07;;;;;;;16.16;55.80;100105.81;5084063;56;1138895;-76
2021/05/21 08:19:40;;;;;;;4.20;1.80;;;;;;;16.32;56.41;100090.31;5091689;56;1138788;-74
2021/05/21 08:24:46;;;;;;;5.17;1.80;;;;;;;16.56;56.05;100080.61;5102444;56;1138619;-74
2021/05/21 08:29:52;;;;;;;2.92;2.10;;;;;;;16.70;55.64;100075.45;5083213;56;1138458;-73
2021/05/21 08:34:59;;;;;;;1.70;1.60;;;;;;;16.81;52.44;100054.23;5066339;56;1138957;-72
2021/05/21 08:40:07;;;;;;;2.23;1.67;;;;;;;16.95;52.37;100066.08;5110052;56;1138590;-71
2021/05/21 08:45:16;;;;;;;1.83;1.50;;;;;;;17.11;53.12;100053.47;5106394;56;1138885;-72
2021/05/21 08:50:22;;;;;;;4.90;1.80;;;;;;;17.28;49.88;100045.39;5105960;56;1138547;-75
2021/05/21 08:55:28;;;;;;;4.40;1.50;;;;;;;17.29;51.32;100038.55;5114619;56;1138640;-73
2021/05/21 09:00:33;;;;;;;5.60;1.40;;;;;;;17.42;48.84;100024.11;5110061;56;1138986;-73
2021/05/21 09:05:39;;;;;;;3.58;1.35;;;;;;;17.27;48.83;100031.20;5103125;56;1139155;-72
2021/05/21 09:10:46;;;;;;;4.22;1.00;;;;;;;17.05;49.85;100019.45;5079049;56;1138899;-75
2021/05/21 09:15:52;;;;;;;4.40;1.17;;;;;;;16.99;50.41;100007.27;5082836;56;1138920;-73
2021/05/21 09:21:02;;;;;;;2.93;1.07;;;;;;;17.19;51.10;100005.36;5073559;56;1139130;-73
2021/05/21 09:26:08;;;;;;;1.97;0.90;;;;;;;17.50;48.88;99998.68;5065349;57;1139211;-75
2021/05/21 09:31:24;;;;;;;8.30;1.13;;;;;;;17.71;47.25;99985.22;5098826;56;1137394;-74
2021/05/21 09:36:35;;;;;;;0.87;0.50;;;;;;;17.87;47.59;99985.91;5107874;56;1137197;-72
2021/05/21 09:41:50;;;;;;;8.98;0.72;;;;;;;18.17;45.89;99969.97;5067244;56;1137082;-79
2021/05/21 09:46:57;;;;;;;1.27;1.00;;;;;;;18.21;45.97;99961.37;5066422;57;1137097;-75
2021/05/21 09:52:14;;;;;;;4.60;0.80;;;;;;;18.44;46.09;99950.62;5081027;56;1137057;-77
2021/05/21 09:57:35;;;;;;;6.63;0.97;;;;;;;18.59;45.04;99946.13;5111490;56;1137142;-74
2021/05/21 10:02:43;;;;;;;0.65;0.60;;;;;;;18.82;45.02;99958.58;5116218;56;1136830;-74
2021/05/21 10:07:52;;;;;;;1.42;1.00;;;;;;;18.84;45.46;99941.30;5086165;56;1137171;-75
2021/05/21 10:12:54;;;;;;;4.37;1.00;;;;;;;18.91;45.16;99933.37;5066214;56;1136515;-76
2021/05/21 10:18:01;;;;;;;7.70;0.97;;;;;;;18.98;44.49;99924.87;5102929;56;1136627;-76
2021/05/21 10:23:08;;;;;;;3.10;0.77;;;;;;;18.94;44.73;99915.04;5101109;56;1136527;-75
2021/05/21 10:28:15;;;;;;;2.37;1.43;;;;;;;19.03;44.31;99913.61;5113390;56;1136530;-71
2021/05/21 10:33:40;;;;;;;2.53;0.63;;;;;;;19.00;44.33;99895.22;5127322;56;1136742;-74
2021/05/21 10:39:12;;;;;;;0.90;0.72;;;;;;;18.93;43.85;99894.65;5089185;56;1136524;-78
2021/05/21 10:44:40;;;;;;;0.80;0.80;;;;;;;18.90;45.22;99884.80;5090704;56;1136939;-75
2021/05/21 10:50:05;;;;;;;4.28;0.93;;;;;;;19.07;45.36;99896.97;5085999;56;1137014;-75
2021/05/21 10:55:11;;;;;;;2.20;1.10;;;;;;;19.02;45.22;99869.89;5090320;56;1136587;-73
2021/05/21 11:00:18;;;;;;;1.65;0.80;;;;;;;19.13;44.07;99876.09;5068034;56;1136764;-75
2021/05/21 11:05:38;;;;;;;8.23;1.17;;;;;;;19.14;44.49;99860.33;5083830;56;1136487;-74
2021/05/21 11:10:44;;;;;;;9.14;1.30;;;;;;;19.22;44.65;99852.18;5008900;57;1136621;-76
2021/05/21 11:15:55;;;;;;;5.77;0.60;;;;;;;19.43;44.16;99832.55;5083999;56;1146007;-74
2021/05/21 11:21:13;;;;;;;5.37;0.67;;;;;;;19.58;43.64;99836.02;5091462;56;1136596;-74
2021/05/21 11:26:25;;;;;;;3.75;0.72;;;;;;;19.60;43.24;99818.39;5096335;56;1136452;-74
2021/05/21 11:31:36;;;;;;;3.92;0.60;;;;;;;19.52;43.85;99814.52;5097592;56;1136986;-74
2021/05/21 11:36:41;;;;;;;7.42;0.50;;;;;;;19.55;41.93;99799.39;5077863;56;1137408;-77
2021/05/21 11:41:50;;;;;;;3.30;0.82;;;;;;;19.71;40.23;99770.09;5066927;56;1137056;-76
2021/05/21 11:47:02;;;;;;;3.37;0.88;;;;;;;19.49;40.13;99766.59;5112136;56;1136901;-75
2021/05/21 11:52:10;;;;;;;4.23;0.60;;;;;;;19.51;41.07;99786.04;5122331;56;1137007;-73
2021/05/21 11:57:20;;;;;;;2.60;0.95;;;;;;;19.70;39.14;99771.95;5105248;56;1136874;-76
2021/05/21 12:02:27;;;;;;;1.75;0.80;;;;;;;19.63;39.53;99758.99;5109170;56;1136849;-77
2021/05/21 12:07:33;;;;;;;3.37;0.60;;;;;;;19.69;40.41;99759.56;5104590;56;1137069;-77
2021/05/21 12:12:39;;;;;;;3.98;0.40;;;;;;;19.84;40.01;99743.34;5066803;56;1136899;-77
2021/05/21 12:17:50;;;;;;;11.63;0.70;;;;;;;19.99;38.45;99734.66;5067417;56;1137280;-74
2021/05/21 12:23:05;;;;;;;14.05;0.75;;;;;;;19.84;38.11;99717.34;5067229;56;1138943;-74
2021/05/21 12:28:13;;;;;;;6.78;0.62;;;;;;;19.72;37.63;99713.53;5114909;56;1139495;-75
2021/05/21 12:33:19;;;;;;;2.17;1.42;;;;;;;19.82;37.89;99722.58;5102399;56;1136968;-78
2021/05/21 12:38:29;;;;;;;13.22;1.08;;;;;;;19.85;38.74;99700.73;5081179;56;1136892;-78
2021/05/21 12:43:37;;;;;;;7.62;0.75;;;;;;;19.95;38.95;99706.55;5089126;56;1138942;-76
2021/05/21 12:48:47;;;;;;;2.00;0.40;;;;;;;20.19;38.09;99684.54;5089667;56;1136868;-73
2021/05/21 12:53:55;;;;;;;6.50;0.75;;;;;;;20.30;38.06;99676.44;5057348;57;1136830;-78
2021/05/21 12:59:10;;;;;;;7.58;0.80;;;;;;;20.20;38.14;99677.31;5083131;57;1136525;-73
2021/05/21 13:04:21;;;;;;;3.45;0.50;;;;;;;20.17;39.02;99658.91;5083233;57;1136568;-78
2021/05/21 13:09:35;;;;;;;5.08;0.80;;;;;;;20.14;37.49;99672.25;5071111;57;1136936;-77
2021/05/21 13:14:46;;;;;;;3.73;1.00;;;;;;;20.18;38.15;99665.95;5065613;57;1137065;-77
2021/05/21 13:19:52;;;;;;;10.95;0.72;;;;;;;20.09;37.33;99660.45;5086792;57;1137283;-77
2021/05/21 13:25:03;;;;;;;13.88;1.02;;;;;;;20.18;39.33;99637.75;5070711;57;1138833;-78
2021/05/21 13:30:12;;;;;;;4.92;0.90;;;;;;;20.52;37.79;99646.23;5072053;57;1138357;-77
2021/05/21 13:35:20;;;;;;;2.85;0.40;;;;;;;20.60;36.99;99667.03;5077422;57;1136503;-77
2021/05/21 13:40:25;;;;;;;0.40;0.40;;;;;;;20.40;36.71;99645.18;5057143;57;1136727;-78
2021/05/21 13:45:31;;;;;;;17.15;0.75;;;;;;;20.23;37.58;99643.35;5066197;56;1136672;-78
2021/05/21 13:50:38;;;;;;;5.58;0.50;;;;;;;20.24;37.35;99638.30;5072502;56;1138585;-75
2021/05/21 13:55:45;;;;;;;4.10;0.80;;;;;;;20.53;37.13;99619.16;5074488;56;1136529;-79
2021/05/21 14:00:52;;;;;;;5.00;1.27;;;;;;;20.69;35.97;99613.91;5090401;56;1136831;-79
2021/05/21 14:05:58;;;;;;;6.42;0.90;;;;;;;20.72;35.49;99609.47;5066380;57;1136520;-77
2021/05/21 14:11:09;;;;;;;9.55;0.98;;;;;;;20.51;36.45;99595.70;5066570;57;1136764;-74
2021/05/21 14:16:16;;;;;;;1.30;0.50;;;;;;;20.44;36.14;99602.95;5066265;57;1136320;-78
2021/05/21 14:21:22;;;;;;;8.88;1.12;;;;;;;20.53;36.34;99611.62;5066155;57;1136384;-77
2021/05/21 14:26:29;;;;;;;5.67;0.65;;;;;;;20.68;36.28;99596.13;5066615;57;1136259;-76
2021/05/21 14:31:43;;;;;;;7.12;1.12;;;;;;;20.82;36.42;99594.26;5066350;57;1136363;-77
2021/05/21 14:36:49;;;;;;;3.30;0.63;;;;;;;20.54;36.47;99624.85;5064943;57;1141166;-75
2021/05/21 14:41:55;;;;;;;5.33;0.80;;;;;;;20.35;36.38;99583.47;5133519;56;1136857;-74
2021/05/21 14:47:00;;;;;;;12.93;0.55;;;;;;;20.36;37.00;99595.89;5118418;56;1136367;-76
2021/05/21 14:52:06;;;;;;;1.27;1.17;;;;;;;20.57;37.04;99583.32;5065706;57;1138591;-74
2021/05/21 14:57:12;;;;;;;4.65;0.72;;;;;;;20.83;37.68;99578.45;5065892;57;1136336;-79
2021/05/21 15:02:26;;;;;;;7.30;0.72;;;;;;;20.79;36.67;99585.27;5065449;57;1137034;-76
2021/05/21 15:07:27;;;;;;;2.42;0.70;;;;;;;20.50;36.83;99577.11;5063843;57;1136454;-76
2021/05/21 15:12:33;;;;;;;2.62;0.30;;;;;;;20.37;37.53;99557.78;5064819;57;1136272;-77
2021/05/21 15:27:59;;;;;;;18.42;6.15;;;;;;;20.36;37.45;99542.19;5028552;57;1138600;-78
2021/05/21 15:33:05;;;;;;;19.90;9.90;;;;;;;20.49;37.26;99542.70;5065681;57;1138559;-74
2021/05/21 15:38:12;;;;;;;10.40;0.98;;;;;;;20.57;37.32;99532.28;5065900;57;1138597;-75
2021/05/21 15:48:45;;;;;;;4.40;0.85;;;;;;;20.38;36.69;99544.67;5066106;57;1136895;-74
2021/05/21 15:59:05;;;;;;;3.33;0.60;;;;;;;20.23;37.46;99534.09;5066263;57;1136860;-72
2021/05/21 16:04:12;;;;;;;7.20;1.12;;;;;;;20.06;36.79;99536.03;5066368;57;1136822;-77
2021/05/21 16:09:18;;;;;;;4.25;1.02;;;;;;;20.01;37.66;99536.11;5066426;57;1136918;-77
2021/05/21 16:14:25;;;;;;;6.12;1.37;;;;;;;19.95;37.42;99534.78;5066105;57;1137319;-76
2021/05/21 16:19:33;;;;;;;1.45;0.72;;;;;;;19.91;37.66;99528.98;5066650;57;1136943;-77
2021/05/21 16:24:41;;;;;;;4.80;0.70;;;;;;;19.90;38.04;99526.50;5066740;57;1136865;-76
2021/05/21 16:29:49;;;;;;;0.90;0.87;;;;;;;19.92;37.49;99529.81;5066207;56;1136983;-74
2021/05/21 16:34:56;;;;;;;8.13;1.32;;;;;;;19.85;37.80;99527.13;5065898;57;1137323;-75
2021/05/21 16:40:02;;;;;;;5.03;1.60;;;;;;;19.82;38.36;99526.70;5066413;57;1136862;-74
2021/05/21 16:45:11;;;;;;;8.18;1.50;;;;;;;19.81;37.64;99528.55;5078434;57;1137040;-77
2021/05/21 16:50:17;;;;;;;3.22;0.93;;;;;;;19.78;37.14;99528.13;5057027;57;1136777;-75
2021/05/21 16:55:23;;;;;;;1.82;1.55;;;;;;;19.70;36.45;99517.08;5095910;57;1136827;-75
2021/05/21 17:00:28;;;;;;;3.75;1.02;;;;;;;19.65;36.94;99493.53;5095948;57;1137241;-75
2021/05/21 17:05:35;;;;;;;6.55;1.32;;;;;;;19.69;36.88;99511.40;5095970;57;1137323;-76
2021/05/21 17:10:43;;;;;;;9.66;2.30;;;;;;;19.79;36.79;99515.02;5113375;57;1137286;-77
2021/05/21 17:16:17;;;;;;;10.68;5.75;;;;;;;19.77;35.92;99503.66;5095827;57;1136849;-75
2021/05/21 17:47:58;;;;;;;5.80;3.10;;;;;;;19.56;36.98;99486.68;5088498;57;1136382;-76
2021/05/21 17:58:39;;;;;;;6.42;1.85;;;;;;;19.34;37.81;99485.15;5083479;57;1136805;-75
2021/05/21 18:03:50;;;;;;;10.80;1.80;;;;;;;19.23;38.13;99462.43;5077009;57;1136571;-75
2021/05/21 18:08:54;;;;;;;3.22;1.80;;;;;;;19.03;38.54;99483.46;5079849;57;1138971;-76
2021/05/21 18:22:18;;;;;;;1.74;0.94;;;;;;;18.90;38.79;99494.43;5082854;57;1137098;-78
2021/05/21 18:24:56;;;;;;;13.00;2.70;;;;;;;18.80;39.25;99493.11;5079954;57;1136906;-79
2021/05/21 19:11:58;;;;;;;5.12;1.75;;;;;;;18.19;41.71;99522.27;5098445;57;1134640;-74
2021/05/21 19:17:09;;;;;;;3.65;1.55;;;;;;;18.11;42.23;99518.41;5098166;57;1136747;-74
2021/05/21 19:22:15;;;;;;;1.53;1.20;;;;;;;18.01;42.38;99520.08;5098266;57;1136437;-77
2021/05/21 19:27:22;;;;;;;2.53;1.70;;;;;;;17.98;42.56;99529.82;5098169;57;1136453;-75
2021/05/21 19:32:50;;;;;;;4.43;1.23;;;;;;;17.92;42.65;99521.20;5098520;57;1136514;-72
2021/05/21 19:49:06;;;;;;;6.37;2.33;;;;;;;17.66;44.00;99525.77;5096954;57;1136847;-75
2021/05/21 19:55:42;;;;;;;6.05;3.55;;;;;;;17.58;44.55;99531.19;5078549;57;1137234;-78
2021/05/21 20:15:32;;;;;;;5.78;2.92;;;;;;;17.26;46.73;99557.02;5083930;57;1139014;-74
2021/05/21 20:20:37;;;;;;;5.20;1.40;;;;;;;17.15;47.12;99561.80;5084160;57;1137028;-80
2021/05/21 20:25:46;;;;;;;5.63;1.63;;;;;;;17.03;48.08;99557.11;5084066;57;1136793;-73
2021/05/21 20:41:38;;;;;;;15.80;4.73;;;;;;;16.70;48.93;99583.30;5083818;56;1136992;-75
2021/05/21 21:07:57;;;;;;;8.47;3.17;;;;;;;16.38;50.33;99583.05;5084041;57;1138765;-74
2021/05/21 21:13:16;;;;;;;12.05;3.27;;;;;;;16.18;51.17;99590.72;5084248;57;1136723;-76
2021/05/21 21:18:27;;;;;;;5.07;1.70;;;;;;;16.04;51.63;99582.15;5083613;57;1138586;-77
2021/05/21 21:29:22;;;;;;;6.90;2.63;;;;;;;15.77;52.46;99601.62;5022869;57;1136432;-73
2021/05/21 22:01:10;;;;;;;5.75;3.47;;;;;;;14.98;55.44;99629.66;5084331;57;1136851;-74
2021/05/21 22:27:07;;;;;;;8.50;4.53;;;;;;;14.51;58.46;99673.45;5027933;57;1138522;-74
2021/05/21 22:32:13;;;;;;;8.43;5.27;;;;;;;14.55;58.47;99668.94;5083926;57;1136523;-76
2021/05/21 22:37:20;;;;;;;8.37;5.17;;;;;;;14.59;58.47;99658.80;5084392;57;1136702;-74
2021/05/21 22:42:26;;;;;;;14.80;7.65;;;;;;;14.65;58.59;99655.00;5084247;57;1136461;-75
2021/05/21 22:47:34;;;;;;;9.68;5.85;;;;;;;14.64;58.66;99647.17;5084019;57;1138502;-78
2021/05/21 22:52:39;;;;;;;6.33;3.40;;;;;;;14.63;58.70;99652.16;5083950;57;1136668;-75
2021/05/21 22:57:45;;;;;;;6.13;1.97;;;;;;;14.20;58.67;99667.88;5084038;57;1136520;-76
2021/05/21 23:02:51;;;;;;;8.00;2.40;;;;;;;14.00;59.57;99660.67;5084152;57;1136909;-75
2021/05/21 23:07:57;;;;;;;4.17;2.72;;;;;;;13.98;60.14;99654.67;5084068;57;1137100;-76
2021/05/21 23:13:03;;;;;;;3.77;1.70;;;;;;;13.95;60.39;99641.70;5084106;57;1136865;-76
2021/05/21 23:18:09;;;;;;;7.37;1.70;;;;;;;13.82;60.45;99640.00;5084015;57;1137016;-77
2021/05/21 23:23:14;;;;;;;5.67;2.73;;;;;;;13.72;60.84;99650.78;5084157;57;1136399;-77
2021/05/21 23:28:21;;;;;;;6.17;3.17;;;;;;;13.68;61.25;99653.41;5083992;56;1136295;-74
2021/05/21 23:33:27;;;;;;;6.43;3.93;;;;;;;13.69;61.67;99643.13;5084031;57;1136439;-74
2021/05/21 23:38:33;;;;;;;4.30;3.17;;;;;;;13.71;61.81;99632.67;5083790;57;1136572;-75
2021/05/21 23:43:39;;;;;;;4.53;2.63;;;;;;;13.76;61.65;99638.81;5083889;57;1136523;-77
2021/05/21 23:48:45;;;;;;;7.77;2.17;;;;;;;13.77;61.93;99631.17;5084521;57;1136528;-77
2021/05/21 23:53:51;;;;;;;4.43;2.17;;;;;;;13.72;62.17;99644.13;5064943;57;1136316;-74
2021/05/21 23:58:56;;;;;;;6.40;1.97;;;;;;;13.62;62.14;99642.91;5084122;57;1136934;-74
